createdAt,value
2022-12-09T00:01:55.654Z,99611.31
2022-12-09T00:04:24.258Z,99609.41
2022-12-09T00:06:54.031Z,99608.75
2022-12-09T00:09:22.184Z,99599.88
2022-12-09T00:11:52.759Z,99595.31
2022-12-09T00:14:20.966Z,99595.84
2022-12-09T00:16:49.444Z,99598.34
2022-12-09T00:19:17.827Z,99591.66
2022-12-09T00:21:45.885Z,99596.25
2022-12-09T00:24:15.866Z,99594.06
2022-12-09T00:26:44.698Z,99591.22
2022-12-09T00:29:13.731Z,99610.22
2022-12-09T00:31:41.948Z,99599.13
2022-12-09T00:34:13.512Z,99613.94
2022-12-09T00:36:42.330Z,99614.53
2022-12-09T00:39:13.386Z,99626.19
2022-12-09T00:41:43.151Z,99617.25
2022-12-09T00:44:11.977Z,99618.03
2022-12-09T00:46:40.073Z,99614.94
2022-12-09T00:49:08.561Z,99616.56
2022-12-09T00:51:36.865Z,99616.69
2022-12-09T00:54:05.355Z,99620.53
2022-12-09T00:56:33.770Z,99604.41
2022-12-09T00:59:03.413Z,99600.34
2022-12-09T01:01:31.697Z,99590.69
2022-12-09T01:03:59.983Z,99604.41
2022-12-09T01:06:28.327Z,99588.59
2022-12-09T01:08:56.711Z,99596.63
2022-12-09T01:11:26.599Z,99599.63
2022-12-09T01:13:57.940Z,99594.88
2022-12-09T01:16:29.827Z,99595.72
2022-12-09T01:19:00.582Z,99603.75
2022-12-09T01:21:29.413Z,99599.44
2022-12-09T01:23:58.106Z,99599.38
2022-12-09T01:26:26.498Z,99593.09
2022-12-09T01:28:55.708Z,99597.69
2022-12-09T01:31:25.853Z,99599.91
2022-12-09T01:33:56.016Z,99592.84
2022-12-09T01:36:26.848Z,99594.88
2022-12-09T01:38:56.083Z,99600.47
2022-12-09T01:41:25.071Z,99601.47
2022-12-09T01:44:15.472Z,99594.47
2022-12-09T01:46:44.364Z,99582.97
2022-12-09T01:49:18.357Z,99589.13
2022-12-09T01:51:53.303Z,99586.13
2022-12-09T01:54:22.027Z,99588.41
2022-12-09T01:56:50.661Z,99581.75
2022-12-09T01:59:19.300Z,99581.75
2022-12-09T02:01:51.922Z,99591.34
2022-12-09T02:04:21.448Z,99590.84
2022-12-09T02:06:50.144Z,99589.25
2022-12-09T02:09:18.688Z,99581.03
2022-12-09T02:11:59.563Z,99568.69
2022-12-09T02:14:36.829Z,99573.50
2022-12-09T02:17:22.790Z,99580.22
2022-12-09T02:20:01.884Z,99579.00
2022-12-09T02:22:34.642Z,99578.50
2022-12-09T02:25:16.923Z,99572.91
2022-12-09T02:27:49.721Z,99573.50
2022-12-09T02:30:20.607Z,99569.41
2022-12-09T02:33:07.205Z,99567.78
2022-12-09T02:35:43.488Z,99563.84
2022-12-09T02:38:17.218Z,99573.38
2022-12-09T02:40:51.698Z,99583.09
2022-12-09T02:43:25.450Z,99575.34
2022-12-09T02:45:56.278Z,99578.22
2022-12-09T02:48:29.086Z,99578.72
2022-12-09T02:51:00.388Z,99572.53
2022-12-09T02:53:29.156Z,99565.75
2022-12-09T02:55:58.024Z,99566.69
2022-12-09T02:58:26.097Z,99575.84
2022-12-09T03:00:57.401Z,99584.94
2022-12-09T03:03:26.545Z,99584.75
2022-12-09T03:06:02.294Z,99579.72
2022-12-09T03:08:38.110Z,99574.13
2022-12-09T03:11:09.891Z,99572.97
2022-12-09T03:13:52.511Z,99581.03
2022-12-09T03:16:26.992Z,99590.53
2022-12-09T03:19:00.784Z,99586.75
2022-12-09T03:21:34.087Z,99590.84
2022-12-09T03:24:03.811Z,99588.81
2022-12-09T03:26:34.591Z,99585.97
2022-12-09T03:29:08.104Z,99595.72
2022-12-09T03:31:38.274Z,99604.41
2022-12-09T03:34:11.536Z,99617.78
2022-12-09T03:36:47.946Z,99609.31
2022-12-09T03:39:21.212Z,99603.91
2022-12-09T03:41:53.229Z,99614.47
2022-12-09T03:44:27.109Z,99617.47
2022-12-09T03:46:55.759Z,99611.34
2022-12-09T03:49:24.218Z,99611.78
2022-12-09T03:51:58.524Z,99605.06
2022-12-09T03:54:30.956Z,99613.63
2022-12-09T03:57:00.508Z,99606.94
2022-12-09T03:59:32.326Z,99598.59
2022-12-09T04:02:00.967Z,99599.25
2022-12-09T04:04:29.624Z,99610.06
2022-12-09T04:06:59.881Z,99599.63
2022-12-09T04:09:28.033Z,99603.31
2022-12-09T04:11:56.176Z,99602.06
2022-12-09T04:14:24.290Z,99606.06
2022-12-09T04:16:52.466Z,99608.25
2022-12-09T04:19:20.983Z,99596.19
2022-12-09T04:21:49.431Z,99589.38
2022-12-09T04:24:19.036Z,99590.69
2022-12-09T04:26:47.553Z,99594.88
2022-12-09T04:29:16.014Z,99583.22
2022-12-09T04:31:44.606Z,99582.84
2022-12-09T04:34:12.807Z,99583.56
2022-12-09T04:36:41.717Z,99588.47
2022-12-09T04:39:10.147Z,99584.16
2022-12-09T04:41:39.746Z,99589.59
2022-12-09T04:44:08.395Z,99586.91
2022-12-09T04:46:36.705Z,99580.31
2022-12-09T04:49:05.510Z,99586.50
2022-12-09T04:51:39.642Z,99589.84
2022-12-09T04:54:09.118Z,99582.25
2022-12-09T04:56:37.575Z,99586.84
2022-12-09T04:59:07.497Z,99590.69
2022-12-09T05:01:36.413Z,99585.41
2022-12-09T05:04:05.453Z,99595.50
2022-12-09T05:06:34.400Z,99599.81
2022-12-09T05:09:02.909Z,99600.25
2022-12-09T05:11:31.301Z,99601.34
2022-12-09T05:13:59.784Z,99599.53
2022-12-09T05:16:29.748Z,99605.91
2022-12-09T05:19:00.676Z,99606.06
2022-12-09T05:21:29.300Z,99617.28
2022-12-09T05:23:57.708Z,99613.72
2022-12-09T05:26:25.892Z,99615.44
2022-12-09T05:28:54.303Z,99609.63
2022-12-09T05:31:24.016Z,99611.91
2022-12-09T05:33:54.185Z,99606.72
2022-12-09T05:36:25.515Z,99607.94
2022-12-09T05:38:55.314Z,99605.78
2022-12-09T05:41:25.361Z,99608.66
2022-12-09T05:43:54.290Z,99604.84
2022-12-09T05:46:23.495Z,99605.41
2022-12-09T05:48:53.324Z,99611.34
2022-12-09T05:51:25.452Z,99610.47
2022-12-09T05:53:54.771Z,99607.03
2022-12-09T05:56:25.478Z,99611.81
2022-12-09T05:58:54.655Z,99609.78
2022-12-09T06:01:24.442Z,99615.13
2022-12-09T06:03:55.416Z,99611.72
2022-12-09T06:06:28.098Z,99618.47
2022-12-09T06:08:59.691Z,99616.69
2022-12-09T06:11:29.124Z,99628.44
2022-12-09T06:13:57.731Z,99627.34
2022-12-09T06:16:26.559Z,99638.78
2022-12-09T06:18:56.985Z,99639.91
2022-12-09T06:21:25.513Z,99647.84
2022-12-09T06:23:54.290Z,99653.06
2022-12-09T06:26:24.700Z,99654.63
2022-12-09T06:28:53.740Z,99655.16
2022-12-09T06:31:23.116Z,99659.53
2022-12-09T06:33:57.121Z,99654.44
2022-12-09T06:36:29.286Z,99659.72
2022-12-09T06:39:07.701Z,99657.66
2022-12-09T06:41:37.958Z,99661.38
2022-12-09T06:44:06.298Z,99660.25
2022-12-09T06:46:34.541Z,99661.84
2022-12-09T06:49:02.942Z,99653.50
2022-12-09T06:51:33.296Z,99659.53
2022-12-09T06:54:01.702Z,99665.56
2022-12-09T06:56:32.653Z,99657.66
2022-12-09T06:59:01.319Z,99658.72
2022-12-09T07:01:30.050Z,99660.81
2022-12-09T07:03:58.862Z,99658.16
2022-12-09T07:06:30.988Z,99658.31
2022-12-09T07:09:07.285Z,99667.47
2022-12-09T07:11:36.120Z,99664.72
2022-12-09T07:14:05.583Z,99654.16
2022-12-09T07:16:35.126Z,99660.88
2022-12-09T07:19:04.411Z,99667.34
2022-12-09T07:21:33.218Z,99664.63
2022-12-09T07:24:04.616Z,99669.25
2022-12-09T07:26:33.720Z,99665.47
2022-12-09T07:29:03.089Z,99656.38
2022-12-09T07:31:31.817Z,99663.81
2022-12-09T07:34:01.001Z,99652.94
2022-12-09T07:36:32.221Z,99646.34
2022-12-09T07:39:02.420Z,99658.22
2022-12-09T07:41:32.404Z,99658.25
2022-12-09T07:44:01.279Z,99654.50
2022-12-09T07:46:29.923Z,99656.97
2022-12-09T07:48:59.568Z,99659.91
2022-12-09T07:51:29.576Z,99664.59
2022-12-09T07:53:58.670Z,99663.50
2022-12-09T07:56:28.449Z,99663.81
2022-12-09T07:58:58.879Z,99670.34
2022-12-09T08:01:31.024Z,99662.00
2022-12-09T08:03:59.786Z,99667.03
2022-12-09T08:06:30.353Z,99669.34
2022-12-09T08:09:00.729Z,99675.38
2022-12-09T08:11:31.863Z,99669.91
2022-12-09T08:14:08.997Z,99671.72
2022-12-09T08:16:39.539Z,99661.94
2022-12-09T08:19:08.405Z,99659.75
2022-12-09T08:21:37.568Z,99669.28
2022-12-09T08:24:07.740Z,99684.47
2022-12-09T08:26:39.498Z,99683.09
2022-12-09T08:29:11.864Z,99678.03
2022-12-09T08:31:42.835Z,99662.34
2022-12-09T08:34:12.180Z,99664.91
2022-12-09T08:36:41.038Z,99664.78
2022-12-09T08:39:10.087Z,99653.41
2022-12-09T08:41:40.164Z,99651.56
2022-12-09T08:44:12.231Z,99659.75
2022-12-09T08:46:43.650Z,99656.56
2022-12-09T08:49:18.909Z,99664.47
2022-12-09T08:51:48.434Z,99652.69
2022-12-09T08:54:16.772Z,99653.94
2022-12-09T08:56:46.834Z,99667.69
2022-12-09T08:59:17.141Z,99658.53
2022-12-09T09:01:45.810Z,99659.59
2022-12-09T09:04:17.581Z,99648.72
2022-12-09T09:06:50.253Z,99647.56
2022-12-09T09:09:20.287Z,99648.28
2022-12-09T09:11:49.547Z,99653.75
2022-12-09T09:14:19.339Z,99640.25
2022-12-09T09:16:48.049Z,99622.84
2022-12-09T09:19:19.538Z,99625.63
2022-12-09T09:21:48.144Z,99611.19
2022-12-09T09:24:19.226Z,99609.16
2022-12-09T09:26:49.314Z,99608.13
2022-12-09T09:29:21.266Z,99603.06
2022-12-09T09:31:54.585Z,99595.16
2022-12-09T09:34:24.217Z,99607.88
2022-12-09T09:36:52.925Z,99599.53
2022-12-09T09:39:22.285Z,99594.97
2022-12-09T09:41:54.504Z,99606.34
2022-12-09T09:44:30.596Z,99588.16
2022-12-09T09:46:59.698Z,99581.78
2022-12-09T09:49:36.474Z,99591.78
2022-12-09T09:52:09.486Z,99586.84
2022-12-09T09:54:37.945Z,99596.19
2022-12-09T09:57:14.867Z,99584.34
2022-12-09T09:59:55.923Z,99582.09
2022-12-09T10:02:40.999Z,99583.66
2022-12-09T10:05:24.087Z,99568.59
2022-12-09T10:07:56.430Z,99561.16
2022-12-09T10:10:37.401Z,99567.59
2022-12-09T10:13:18.729Z,99552.25
2022-12-09T10:16:00.696Z,99552.16
2022-12-09T10:18:34.483Z,99549.31
2022-12-09T10:21:03.293Z,99548.88
2022-12-09T10:23:33.079Z,99554.75
2022-12-09T10:26:06.295Z,99538.06
2022-12-09T10:28:38.393Z,99528.50
2022-12-09T10:31:08.629Z,99521.28
2022-12-09T10:33:39.129Z,99506.16
2022-12-09T10:36:22.062Z,99500.03
2022-12-09T10:38:50.896Z,99496.19
2022-12-09T10:41:50.076Z,99494.19
2022-12-09T10:44:23.953Z,99497.81
2022-12-09T10:47:01.340Z,99487.00
2022-12-09T10:49:30.419Z,99489.16
2022-12-09T10:52:00.118Z,99486.56
2022-12-09T10:54:34.281Z,99485.44
2022-12-09T10:57:07.257Z,99482.44
2022-12-09T10:59:37.486Z,99460.72
2022-12-09T11:02:23.830Z,99466.13
2022-12-09T11:04:52.541Z,99459.91
2022-12-09T11:07:23.937Z,99455.41
2022-12-09T11:10:04.204Z,99455.53
2022-12-09T11:12:40.972Z,99455.53
2022-12-09T11:15:28.704Z,99455.03
2022-12-09T11:18:01.556Z,99464.75
2022-12-09T11:20:31.843Z,99458.97
2022-12-09T11:23:03.466Z,99463.97
2022-12-09T11:25:33.843Z,99456.06
2022-12-09T11:28:04.783Z,99451.78
2022-12-09T11:30:36.627Z,99440.97
2022-12-09T11:33:25.413Z,99439.31
2022-12-09T11:38:40.446Z,99444.69
2022-12-09T11:41:38.812Z,99443.13
2022-12-09T11:44:22.103Z,99431.22
2022-12-09T11:46:59.381Z,99440.41
2022-12-09T11:49:30.864Z,99435.78
2022-12-09T11:52:06.546Z,99442.09
2022-12-09T11:54:41.677Z,99443.53
2022-12-09T11:57:19.174Z,99428.47
2022-12-09T11:59:52.115Z,99434.28
2022-12-09T12:02:29.757Z,99427.28
2022-12-09T12:05:04.287Z,99413.66
2022-12-09T12:07:41.399Z,99422.81
2022-12-09T12:10:20.796Z,99421.03
2022-12-09T12:13:00.955Z,99427.00
2022-12-09T12:15:36.151Z,99416.31
2022-12-09T12:18:10.239Z,99409.78
2022-12-09T12:20:50.418Z,99405.69
2022-12-09T12:23:33.561Z,99409.81
2022-12-09T12:26:07.997Z,99423.47
2022-12-09T12:29:03.966Z,99422.41
2022-12-09T12:31:53.350Z,99415.91
2022-12-09T12:34:28.377Z,99403.97
2022-12-09T12:37:08.050Z,99404.19
2022-12-09T12:39:51.232Z,99412.63
2022-12-09T12:42:29.038Z,99398.34
2022-12-09T12:45:21.643Z,99409.69
2022-12-09T12:47:58.516Z,99415.56
2022-12-09T12:50:44.792Z,99401.81
2022-12-09T12:53:26.453Z,99412.28
2022-12-09T12:56:01.099Z,99421.63
2022-12-09T12:58:42.878Z,99411.38
2022-12-09T13:01:21.769Z,99413.81
2022-12-09T13:03:58.829Z,99411.59
2022-12-09T13:06:37.440Z,99408.84
2022-12-09T13:09:13.932Z,99401.47
2022-12-09T13:11:57.442Z,99395.72
2022-12-09T13:14:33.051Z,99409.50
2022-12-09T13:17:03.076Z,99393.38
2022-12-09T13:19:38.572Z,99402.84
2022-12-09T13:22:09.936Z,99395.16
2022-12-09T13:24:44.309Z,99392.47
2022-12-09T13:27:19.293Z,99418.03
2022-12-09T13:29:58.554Z,99417.47
2022-12-09T13:32:50.542Z,99424.00
2022-12-09T13:35:26.495Z,99414.50
2022-12-09T13:37:59.320Z,99423.19
2022-12-09T13:40:32.595Z,99415.22
2022-12-09T13:43:20.505Z,99410.88
2022-12-09T13:45:52.577Z,99419.69
2022-12-09T13:48:45.810Z,99403.59
2022-12-09T13:51:14.747Z,99420.16
2022-12-09T13:53:53.733Z,99427.72
2022-12-09T13:56:30.953Z,99408.78
2022-12-09T13:59:32.485Z,99412.63
2022-12-09T14:02:05.178Z,99398.56
2022-12-09T14:04:36.988Z,99411.50
2022-12-09T14:07:17.409Z,99398.09
2022-12-09T14:09:51.329Z,99417.59
2022-12-09T14:12:57.974Z,99391.81
2022-12-09T14:15:41.150Z,99392.59
2022-12-09T14:18:32.875Z,99393.41
2022-12-09T14:21:23.746Z,99402.41
2022-12-09T14:24:29.013Z,99391.56
2022-12-09T14:27:18.478Z,99399.00
2022-12-09T14:29:50.889Z,99393.81
2022-12-09T14:32:26.062Z,99389.78
2022-12-09T14:35:24.522Z,99379.44
2022-12-09T14:38:10.484Z,99385.16
2022-12-09T14:40:53.761Z,99385.38
2022-12-09T14:43:44.636Z,99389.28
2022-12-09T14:46:23.670Z,99391.66
2022-12-09T14:48:57.290Z,99400.97
2022-12-09T14:51:29.312Z,99413.56
2022-12-09T14:54:01.390Z,99397.94
2022-12-09T14:56:31.640Z,99395.00
2022-12-09T14:59:04.248Z,99394.94
2022-12-09T15:01:47.434Z,99392.25
2022-12-09T15:04:29.839Z,99391.56
2022-12-09T15:07:09.160Z,99391.78
2022-12-09T15:09:37.695Z,99384.72
2022-12-09T15:12:11.437Z,99373.03
2022-12-09T15:14:41.839Z,99374.13
2022-12-09T15:17:14.731Z,99381.56
2022-12-09T15:20:00.808Z,99388.34
2022-12-09T15:22:32.614Z,99383.47
2022-12-09T15:25:02.497Z,99387.53
2022-12-09T15:27:31.524Z,99377.72
2022-12-09T15:29:59.633Z,99387.97
2022-12-09T15:32:29.942Z,99383.91
2022-12-09T15:35:19.230Z,99376.25
2022-12-09T15:37:48.252Z,99375.03
2022-12-09T15:40:20.222Z,99368.94
2022-12-09T15:42:52.182Z,99374.81
2022-12-09T15:45:22.860Z,99373.13
2022-12-09T15:47:55.626Z,99358.97
2022-12-09T15:50:30.095Z,99358.41
2022-12-09T15:53:03.780Z,99361.56
2022-12-09T15:55:36.792Z,99361.41
2022-12-09T15:58:08.105Z,99357.38
2022-12-09T16:00:41.104Z,99362.31
2022-12-09T16:03:09.499Z,99361.88
2022-12-09T16:05:42.077Z,99363.22
2022-12-09T16:08:11.743Z,99362.44
2022-12-09T16:10:47.617Z,99356.28
2022-12-09T16:13:17.609Z,99348.81
2022-12-09T16:15:51.658Z,99354.88
2022-12-09T16:18:23.383Z,99350.63
2022-12-09T16:21:02.196Z,99339.06
2022-12-09T16:23:30.786Z,99340.41
2022-12-09T16:26:06.922Z,99335.88
2022-12-09T16:28:36.556Z,99333.19
2022-12-09T16:31:17.681Z,99343.84
2022-12-09T16:33:49.712Z,99345.22
2022-12-09T16:36:22.914Z,99342.63
2022-12-09T16:39:28.937Z,99338.13
2022-12-09T16:42:00.838Z,99330.16
2022-12-09T16:44:34.122Z,99340.72
2022-12-09T16:47:12.764Z,99335.53
2022-12-09T16:49:42.321Z,99337.78
2022-12-09T16:52:15.140Z,99355.09
2022-12-09T16:54:45.351Z,99349.53
2022-12-09T16:57:14.796Z,99353.09
2022-12-09T16:59:43.444Z,99348.50
2022-12-09T17:02:22.526Z,99357.38
2022-12-09T17:04:53.265Z,99347.50
2022-12-09T17:07:22.783Z,99351.75
2022-12-09T17:09:51.028Z,99352.19
2022-12-09T17:12:19.222Z,99340.28
2022-12-09T17:14:47.360Z,99350.06
2022-12-09T17:17:16.275Z,99350.84
2022-12-09T17:19:46.263Z,99345.34
2022-12-09T17:22:14.685Z,99335.78
2022-12-09T17:24:47.032Z,99342.75
2022-12-09T17:27:17.927Z,99336.09
2022-12-09T17:29:46.743Z,99332.38
2022-12-09T17:32:18.345Z,99316.66
2022-12-09T17:34:47.429Z,99314.97
2022-12-09T17:37:15.724Z,99314.53
2022-12-09T17:39:46.309Z,99322.06
2022-12-09T17:42:14.734Z,99321.50
2022-12-09T17:44:43.633Z,99317.31
2022-12-09T17:47:11.881Z,99324.41
2022-12-09T17:49:42.449Z,99328.13
2022-12-09T17:52:11.208Z,99322.50
2022-12-09T17:54:39.318Z,99318.56
2022-12-09T17:57:08.856Z,99312.50
2022-12-09T17:59:38.746Z,99324.88
2022-12-09T18:02:07.251Z,99313.28
2022-12-09T18:04:35.448Z,99292.25
2022-12-09T18:07:03.668Z,99300.25
2022-12-09T18:09:32.684Z,99299.34
2022-12-09T18:12:01.215Z,99313.19
2022-12-09T18:14:31.069Z,99315.44
2022-12-09T18:16:59.158Z,99322.94
2022-12-09T18:19:27.337Z,99326.78
2022-12-09T18:21:59.194Z,99334.09
2022-12-09T18:24:27.386Z,99328.25
2022-12-09T18:26:55.479Z,99331.28
2022-12-09T18:29:24.157Z,99319.34
2022-12-09T18:31:56.701Z,99313.38
2022-12-09T18:34:25.336Z,99305.09
2022-12-09T18:36:54.160Z,99322.06
2022-12-09T18:39:23.458Z,99315.66
2022-12-09T18:41:51.557Z,99311.81
2022-12-09T18:44:19.721Z,99325.00
2022-12-09T18:46:50.709Z,99328.13
2022-12-09T18:49:21.651Z,99321.84
2022-12-09T18:51:50.996Z,99326.78
2022-12-09T18:54:21.207Z,99322.03
2022-12-09T18:56:49.455Z,99332.06
2022-12-09T18:59:18.217Z,99332.72
2022-12-09T19:01:48.401Z,99330.34
2022-12-09T19:04:22.578Z,99326.56
2022-12-09T19:06:52.354Z,99321.06
2022-12-09T19:09:22.316Z,99321.16
2022-12-09T19:11:52.525Z,99314.63
2022-12-09T19:14:22.660Z,99318.00
2022-12-09T19:16:51.633Z,99311.81
2022-12-09T19:19:24.286Z,99306.06
2022-12-09T19:21:53.247Z,99302.81
2022-12-09T19:24:24.216Z,99305.88
2022-12-09T19:26:54.046Z,99306.66
2022-12-09T19:29:24.626Z,99290.03
2022-12-09T19:31:53.955Z,99301.63
2022-12-09T19:34:25.078Z,99297.09
2022-12-09T19:36:59.322Z,99295.63
2022-12-09T19:39:31.411Z,99298.91
2022-12-09T19:42:00.295Z,99294.16
2022-12-09T19:45:01.086Z,99295.41
2022-12-09T19:47:17.981Z,99289.47
2022-12-09T19:49:47.566Z,99284.63
2022-12-09T19:52:15.981Z,99293.03
2022-12-09T19:54:44.213Z,99284.63
2022-12-09T19:57:12.611Z,99288.31
2022-12-09T19:59:40.977Z,99288.31
2022-12-09T20:02:14.105Z,99285.38
2022-12-09T20:04:50.772Z,99282.94
2022-12-09T20:07:21.112Z,99272.47
2022-12-09T20:09:49.861Z,99275.06
2022-12-09T20:12:18.016Z,99258.88
2022-12-09T20:14:46.140Z,99270.44
2022-12-09T20:17:14.256Z,99269.56
2022-12-09T20:19:42.559Z,99262.91
2022-12-09T20:22:11.245Z,99271.47
2022-12-09T20:24:41.798Z,99271.69
2022-12-09T20:27:10.587Z,99258.66
2022-12-09T20:29:38.719Z,99256.19
2022-12-09T20:32:07.630Z,99242.94
2022-12-09T20:34:38.858Z,99255.50
2022-12-09T20:37:07.530Z,99246.75
2022-12-09T20:39:35.753Z,99251.44
2022-12-09T20:55:39.192Z,99226.63
2022-12-09T20:58:07.290Z,99218.63
2022-12-09T21:00:35.380Z,99223.91
2022-12-09T21:03:03.386Z,99225.59
2022-12-09T21:05:31.734Z,99229.75
2022-12-09T21:08:00.272Z,99214.13
2022-12-09T21:10:28.566Z,99213.03
2022-12-09T21:12:58.391Z,99225.38
2022-12-09T21:15:27.905Z,99245.28
2022-12-09T21:17:56.586Z,99221.78
2022-12-09T21:20:24.804Z,99234.38
2022-12-09T21:23:24.857Z,99226.03
2022-12-09T21:25:41.264Z,99226.72
2022-12-09T21:28:10.806Z,99227.50
2022-12-09T21:30:39.178Z,99229.06
2022-12-09T21:33:07.484Z,99235.03
2022-12-09T21:35:36.578Z,99240.53
2022-12-09T21:38:04.799Z,99234.59
2022-12-09T21:40:34.272Z,99215.72
2022-12-09T21:43:02.441Z,99233.59
2022-12-09T21:45:32.235Z,99225.22
2022-12-09T21:48:00.428Z,99220.28
2022-12-09T21:50:28.620Z,99221.19
2022-12-09T21:52:56.742Z,99213.13
2022-12-09T21:55:24.889Z,99213.59
2022-12-09T21:57:53.003Z,99219.75
2022-12-09T22:00:21.164Z,99217.75
2022-12-09T22:02:54.500Z,99228.97
2022-12-09T22:05:22.585Z,99219.66
2022-12-09T22:07:51.103Z,99214.16
2022-12-09T22:10:19.333Z,99211.66
2022-12-09T22:12:47.551Z,99208.63
2022-12-09T22:15:15.576Z,99216.16
2022-12-09T22:17:43.660Z,99210.78
2022-12-09T22:20:54.154Z,99211.44
2022-12-09T22:23:01.860Z,99207.84
2022-12-09T22:25:29.959Z,99190.09
2022-12-09T22:27:58.525Z,99191.56
2022-12-09T22:30:26.778Z,99190.78
2022-12-09T22:32:54.803Z,99192.44
2022-12-09T22:35:24.191Z,99190.09
2022-12-09T22:37:52.169Z,99198.41
2022-12-09T22:40:20.492Z,99196.16
2022-12-09T22:42:48.481Z,99184.81
2022-12-09T22:45:16.634Z,99183.56
2022-12-09T22:47:44.714Z,99189.06
2022-12-09T22:50:13.073Z,99183.56
2022-12-09T22:52:42.566Z,99181.97
2022-12-09T22:55:11.108Z,99170.19
2022-12-09T22:57:39.511Z,99164.69
2022-12-09T23:00:11.541Z,99170.50
2022-12-09T23:02:40.016Z,99168.72
2022-12-09T23:05:09.338Z,99170.75
2022-12-09T23:07:37.412Z,99159.97
2022-12-09T23:10:08.456Z,99153.47
2022-12-09T23:12:36.669Z,99144.34
2022-12-09T23:15:05.573Z,99125.69
2022-12-09T23:17:33.898Z,99134.19
2022-12-09T23:20:01.948Z,99135.91
2022-12-09T23:22:30.169Z,99131.81
2022-12-09T23:24:58.129Z,99138.13
2022-12-09T23:27:27.572Z,99132.53
2022-12-09T23:29:55.785Z,99133.00
2022-12-09T23:32:23.977Z,99129.50
2022-12-09T23:34:52.148Z,99130.41
2022-12-09T23:37:20.124Z,99132.75
2022-12-09T23:39:48.929Z,99128.16
2022-12-09T23:42:16.875Z,99132.19
2022-12-09T23:44:46.381Z,99111.97
2022-12-09T23:47:14.571Z,99120.28
2022-12-09T23:49:42.645Z,99126.25
2022-12-09T23:52:11.091Z,99117.66
2022-12-09T23:54:39.707Z,99113.97
2022-12-09T23:57:07.982Z,99100.19
2022-12-09T23:59:36.039Z,99120.75
